Terminal Aerodrome Forecast
Issued by NWS

Home | Current Version | Previous Version | Text Only | Print | Product List | Glossary On
Versions: 1 2 3 4 5 6 7 8 9 10 11 12 13 14 15 16 17 18 19 20 21
000
FTUS42 KMFL 032137 AAA
TAFTMB
TAF AMD
KTMB 032137Z 0322/0418 VRB10G18KT P6SM VCTS SCT029CB BKN040
      TEMPO 0322/0324 4SM SHRA SCT020 BKN030
     FM040100 21007KT P6SM VCSH FEW030 SCT080 BKN250
     FM040300 23002KT P6SM FEW030 SCT250
     FM041300 25011KT P6SM VCSH SCT030 SCT050=

USA.gov is the U.S. government's official web portal to all federal, state and local government web resources and services.